Stuart, Virginia
Current Conditions -  °F | °C
As of 9:15 AM on Wednesday 28 Jan 2015 (Local Time) from KMTV Reporting Station
Clear Clear  
Wind Chill: 22°   Ceiling: Unl
Heat Index: 31°   Visibility: 10mi
Dew Point: 16°   Wind: 10mph
Humidity: 53%   Direction: 340°NNW
Pressure: 30.25"   Gusts: NA
Location:  36.64°N, 80.27°W
Report Text: KMTV 281415Z AUTO 34009KT 10SM CLR M01/M09 A3025 RMK AO2 T10061091
Loading
Personal Weather Stations






























Interactive Weather Map New forecast layout! Learn more

10-Day Weather Forecast

Advertisements
Track Severe Weather on mobile